createdAt,value
2023-05-21T00:01:06.502Z,16.70
2023-05-21T00:04:09.813Z,17.10
2023-05-21T00:07:15.390Z,16.80
2023-05-21T00:10:20.128Z,17.73
2023-05-21T00:13:23.275Z,17.43
2023-05-21T00:16:27.192Z,16.43
2023-05-21T00:19:32.777Z,16.13
2023-05-21T00:22:36.348Z,18.57
2023-05-21T00:25:40.862Z,17.27
2023-05-21T00:28:44.074Z,18.27
2023-05-21T00:31:47.260Z,17.07
2023-05-21T00:34:50.483Z,16.73
2023-05-21T00:37:53.991Z,16.13
2023-05-21T00:40:58.473Z,16.83
2023-05-21T00:44:01.560Z,17.93
2023-05-21T00:47:06.565Z,16.97
2023-05-21T00:50:10.571Z,16.93
2023-05-21T00:53:15.444Z,16.80
2023-05-21T00:56:21.447Z,16.43
2023-05-21T00:59:25.423Z,15.13
2023-05-21T01:02:28.698Z,17.23
2023-05-21T01:05:32.475Z,17.10
2023-05-21T01:08:37.654Z,17.17
2023-05-21T01:11:44.958Z,16.83
2023-05-21T01:14:49.053Z,15.87
2023-05-21T01:17:53.161Z,16.30
2023-05-21T01:20:56.371Z,18.23
2023-05-21T01:24:02.209Z,17.17
2023-05-21T01:27:07.650Z,18.00
2023-05-21T01:30:12.124Z,17.53
2023-05-21T01:33:20.904Z,18.37
2023-05-21T01:36:27.259Z,17.43
2023-05-21T01:39:39.128Z,18.23
2023-05-21T01:42:45.527Z,19.53
2023-05-21T01:45:49.791Z,18.47
2023-05-21T01:48:56.056Z,18.67
2023-05-21T01:51:59.408Z,18.20
2023-05-21T01:55:04.629Z,19.73
2023-05-21T01:58:08.204Z,18.57
2023-05-21T02:01:12.012Z,19.53
2023-05-21T02:04:15.175Z,20.67
2023-05-21T02:07:18.374Z,19.30
2023-05-21T02:10:23.210Z,20.37
2023-05-21T02:13:26.969Z,18.77
2023-05-21T02:16:30.276Z,20.17
2023-05-21T02:19:33.540Z,21.27
2023-05-21T02:22:39.692Z,20.63
2023-05-21T02:25:46.333Z,19.97
2023-05-21T02:28:49.433Z,20.77
2023-05-21T02:31:52.731Z,20.20
2023-05-21T02:34:55.894Z,20.83
2023-05-21T02:37:59.418Z,20.07
2023-05-21T02:41:04.056Z,20.50
2023-05-21T02:44:07.244Z,20.80
2023-05-21T02:47:12.544Z,21.60
2023-05-21T02:50:16.138Z,22.20
2023-05-21T02:53:19.324Z,22.23
2023-05-21T02:56:24.863Z,21.17
2023-05-21T02:59:27.930Z,23.10
2023-05-21T03:02:31.336Z,22.83
2023-05-21T03:05:34.958Z,23.73
2023-05-21T03:08:38.678Z,23.87
2023-05-21T03:11:44.554Z,25.27
2023-05-21T03:14:48.069Z,24.20
2023-05-21T03:17:51.292Z,23.70
2023-05-21T03:20:59.000Z,24.13
2023-05-21T03:24:02.838Z,24.93
2023-05-21T03:27:08.163Z,24.07
2023-05-21T03:30:12.152Z,24.77
2023-05-21T03:33:15.574Z,26.20
2023-05-21T03:36:18.623Z,25.83
2023-05-21T03:39:22.094Z,24.53
2023-05-21T03:42:26.558Z,25.80
2023-05-21T03:45:29.828Z,24.90
2023-05-21T03:48:33.007Z,24.33
2023-05-21T03:51:36.205Z,25.03
2023-05-21T03:54:40.603Z,22.50
2023-05-21T03:57:45.192Z,22.43
2023-05-21T04:00:48.610Z,21.53
2023-05-21T04:03:51.877Z,22.90
2023-05-21T04:06:55.353Z,23.77
2023-05-21T04:10:02.047Z,23.77
2023-05-21T04:13:06.842Z,25.57
2023-05-21T04:16:10.022Z,25.83
2023-05-21T04:19:13.170Z,26.37
2023-05-21T04:22:16.358Z,25.93
2023-05-21T04:25:20.385Z,25.67
2023-05-21T04:28:28.743Z,25.20
2023-05-21T04:31:32.677Z,24.63
2023-05-21T04:34:36.166Z,26.83
2023-05-21T04:37:42.080Z,26.17
2023-05-21T04:40:45.237Z,25.10
2023-05-21T04:43:49.668Z,25.30
2023-05-21T04:46:53.000Z,24.53
2023-05-21T04:49:56.215Z,25.03
2023-05-21T04:52:59.965Z,25.00
2023-05-21T04:56:03.904Z,23.97
2023-05-21T04:59:08.415Z,23.73
2023-05-21T05:02:11.490Z,22.50
2023-05-21T05:05:14.607Z,24.50
2023-05-21T05:08:17.621Z,23.37
2023-05-21T05:11:20.816Z,22.63
2023-05-21T05:14:25.332Z,23.30
2023-05-21T05:17:28.428Z,22.80
2023-05-21T05:20:31.623Z,22.40
2023-05-21T05:23:34.748Z,21.37
2023-05-21T05:26:37.820Z,21.37
2023-05-21T05:29:42.273Z,21.33
2023-05-21T05:32:45.683Z,21.77
2023-05-21T05:35:49.138Z,20.83
2023-05-21T05:38:52.524Z,20.73
2023-05-21T05:41:55.786Z,21.13
2023-05-21T05:45:00.561Z,22.23
2023-05-21T05:48:03.893Z,21.37
2023-05-21T05:51:07.172Z,21.00
2023-05-21T05:54:10.463Z,20.00
2023-05-21T05:57:13.644Z,18.80
2023-05-21T06:00:18.675Z,19.67
2023-05-21T06:03:21.782Z,19.70
2023-05-21T06:06:24.906Z,19.37
2023-05-21T06:09:27.918Z,20.77
2023-05-21T06:12:31.016Z,19.23
2023-05-21T06:15:35.540Z,18.60
2023-05-21T06:18:38.833Z,18.63
2023-05-21T06:21:41.957Z,19.43
2023-05-21T06:24:44.961Z,18.77
2023-05-21T06:27:48.086Z,20.47
2023-05-21T06:30:53.926Z,22.47
2023-05-21T06:33:57.401Z,20.57
2023-05-21T06:37:00.731Z,20.80
2023-05-21T06:40:04.883Z,18.97
2023-05-21T06:43:07.971Z,18.83
2023-05-21T06:46:12.414Z,19.53
2023-05-21T06:49:15.570Z,16.93
2023-05-21T06:52:19.036Z,19.17
2023-05-21T06:55:22.468Z,18.27
2023-05-21T06:58:25.550Z,18.30
2023-05-21T07:01:30.666Z,16.90
2023-05-21T07:04:35.254Z,18.53
2023-05-21T07:07:38.328Z,20.03
2023-05-21T07:10:42.375Z,18.87
2023-05-21T07:13:48.494Z,18.67
2023-05-21T07:17:01.478Z,18.60
2023-05-21T07:20:07.705Z,20.10
2023-05-21T07:23:10.724Z,18.20
2023-05-21T07:26:13.821Z,17.10
2023-05-21T07:29:17.216Z,18.73
2023-05-21T07:32:22.796Z,16.07
2023-05-21T07:35:25.916Z,17.67
2023-05-21T07:38:28.981Z,16.67
2023-05-21T07:41:32.687Z,16.83
2023-05-21T07:44:35.756Z,17.27
2023-05-21T07:47:40.238Z,16.80
2023-05-21T07:50:43.350Z,15.67
2023-05-21T07:53:46.390Z,15.97
2023-05-21T07:56:49.900Z,16.70
2023-05-21T07:59:53.119Z,16.00
2023-05-21T08:02:57.587Z,15.33
2023-05-21T08:06:00.862Z,13.23
2023-05-21T08:09:04.749Z,14.70
2023-05-21T08:12:08.619Z,16.13
2023-05-21T08:15:13.077Z,13.50
2023-05-21T08:18:18.478Z,15.87
2023-05-21T08:21:21.704Z,15.93
2023-05-21T08:24:26.331Z,14.20
2023-05-21T08:27:29.724Z,15.10
2023-05-21T08:30:32.940Z,14.77
2023-05-21T08:33:38.333Z,14.57
2023-05-21T08:36:43.271Z,14.13
2023-05-21T08:39:46.382Z,13.17
2023-05-21T08:42:51.147Z,15.43
2023-05-21T08:45:55.942Z,14.13
2023-05-21T08:49:00.503Z,13.00
2023-05-21T08:52:04.112Z,13.17
2023-05-21T08:55:08.965Z,12.73
2023-05-21T08:58:12.104Z,13.07
2023-05-21T09:01:18.739Z,13.13
2023-05-21T09:04:24.465Z,11.90
2023-05-21T09:07:29.182Z,12.13
2023-05-21T09:10:37.345Z,12.80
2023-05-21T09:13:41.867Z,12.60
2023-05-21T09:16:48.188Z,12.47
2023-05-21T09:20:13.446Z,13.03
2023-05-21T09:23:18.918Z,12.57
2023-05-21T09:26:23.120Z,12.83
2023-05-21T09:29:27.384Z,11.97
2023-05-21T09:32:30.537Z,12.23
2023-05-21T09:35:36.238Z,11.07
2023-05-21T09:38:40.909Z,11.30
2023-05-21T09:41:44.042Z,11.67
2023-05-21T09:44:48.281Z,11.20
2023-05-21T09:47:53.038Z,11.37
2023-05-21T09:51:12.058Z,11.00
2023-05-21T09:54:15.388Z,10.33
2023-05-21T09:57:23.984Z,10.07
2023-05-21T10:00:29.630Z,10.80
2023-05-21T10:03:35.075Z,11.30
2023-05-21T10:06:44.451Z,10.43
2023-05-21T10:09:49.713Z,10.30
2023-05-21T10:12:56.443Z,9.90
2023-05-21T10:16:03.646Z,9.67
2023-05-21T10:19:10.891Z,10.67
2023-05-21T10:22:16.788Z,10.83
2023-05-21T10:25:21.312Z,10.93
2023-05-21T10:28:25.066Z,11.13
2023-05-21T10:31:29.751Z,10.67
2023-05-21T10:34:33.349Z,9.27
2023-05-21T10:37:38.599Z,9.57
2023-05-21T10:40:41.793Z,10.03
2023-05-21T10:43:52.741Z,9.53
2023-05-21T10:47:35.655Z,9.40
2023-05-21T10:51:20.356Z,10.17
2023-05-21T10:54:49.879Z,10.23
2023-05-21T10:58:13.370Z,9.77
2023-05-21T11:01:19.252Z,8.87
2023-05-21T11:04:28.096Z,7.77
2023-05-21T11:07:53.662Z,8.47
2023-05-21T11:10:59.696Z,8.73
2023-05-21T11:14:02.680Z,7.93
2023-05-21T11:17:12.141Z,7.83
2023-05-21T11:20:15.311Z,8.23
2023-05-21T11:23:18.405Z,8.40
2023-05-21T11:26:24.356Z,9.10
2023-05-21T11:29:33.990Z,8.63
2023-05-21T11:32:40.906Z,8.27
2023-05-21T11:35:59.450Z,8.60
2023-05-21T11:39:15.320Z,8.47
2023-05-21T11:42:30.249Z,8.13
2023-05-21T11:45:34.255Z,7.50
2023-05-21T11:48:39.033Z,7.90
2023-05-21T11:51:42.326Z,7.23
2023-05-21T11:54:48.625Z,7.43
2023-05-21T11:57:55.170Z,7.77
2023-05-21T12:00:58.380Z,8.03
2023-05-21T12:04:05.142Z,6.93
2023-05-21T12:07:08.596Z,7.70
2023-05-21T12:10:13.172Z,7.63
2023-05-21T12:13:20.237Z,6.88
2023-05-21T12:16:24.056Z,7.40
2023-05-21T12:19:27.693Z,7.15
2023-05-21T12:22:34.363Z,6.70
2023-05-21T12:25:37.518Z,7.03
2023-05-21T12:28:42.128Z,7.10
2023-05-21T12:31:50.253Z,6.40
2023-05-21T12:34:55.155Z,7.43
2023-05-21T12:37:58.755Z,6.77
2023-05-21T12:41:05.332Z,7.87
2023-05-21T12:44:09.886Z,7.00
2023-05-21T12:47:13.883Z,8.40
2023-05-21T12:50:21.408Z,7.40
2023-05-21T12:53:24.417Z,6.47
2023-05-21T12:56:27.529Z,7.13
2023-05-21T12:59:44.960Z,6.43
2023-05-21T13:02:47.965Z,7.35
2023-05-21T13:05:59.771Z,6.60
2023-05-21T13:09:02.951Z,6.57
2023-05-21T13:12:06.421Z,6.63
2023-05-21T13:15:11.846Z,6.97
2023-05-21T13:18:15.802Z,6.88
2023-05-21T13:21:19.053Z,7.82
2023-05-21T13:24:22.026Z,7.40
2023-05-21T13:27:25.052Z,8.00
2023-05-21T13:30:29.607Z,7.33
2023-05-21T13:33:33.236Z,7.80
2023-05-21T13:36:37.534Z,7.87
2023-05-21T13:39:40.767Z,8.33
2023-05-21T13:42:44.090Z,7.60
2023-05-21T13:45:49.848Z,8.13
2023-05-21T13:48:53.081Z,8.33
2023-05-21T13:51:58.011Z,8.03
2023-05-21T13:55:01.100Z,8.03
2023-05-21T13:58:04.722Z,7.30
2023-05-21T14:01:09.531Z,7.27
2023-05-21T14:04:12.978Z,6.97
2023-05-21T14:07:16.844Z,6.70
2023-05-21T14:10:20.379Z,6.85
2023-05-21T14:13:23.416Z,6.70
2023-05-21T14:16:28.381Z,6.65
2023-05-21T14:19:31.626Z,6.85
2023-05-21T14:22:34.795Z,6.68
2023-05-21T14:25:38.044Z,7.05
2023-05-21T14:28:41.489Z,7.45
2023-05-21T14:31:46.573Z,6.55
2023-05-21T14:34:49.599Z,7.22
2023-05-21T14:37:54.050Z,6.45
2023-05-21T14:40:57.155Z,6.20
2023-05-21T14:44:00.240Z,6.75
2023-05-21T14:47:04.979Z,7.38
2023-05-21T14:50:09.231Z,6.72
2023-05-21T14:53:13.138Z,6.57
2023-05-21T14:56:16.326Z,6.68
2023-05-21T14:59:19.435Z,6.25
2023-05-21T15:02:26.015Z,6.20
2023-05-21T15:05:29.884Z,6.78
2023-05-21T15:08:33.234Z,5.90
2023-05-21T15:11:36.316Z,5.97
2023-05-21T15:14:39.443Z,6.30
2023-05-21T15:17:43.998Z,5.80
2023-05-21T15:20:47.367Z,6.50
2023-05-21T15:23:50.473Z,6.30
2023-05-21T15:26:53.543Z,6.13
2023-05-21T15:29:57.021Z,6.57
2023-05-21T15:33:01.595Z,5.80
2023-05-21T15:36:04.884Z,6.38
2023-05-21T15:39:07.950Z,5.67
2023-05-21T15:42:12.385Z,6.67
2023-05-21T15:45:15.427Z,6.50
2023-05-21T15:48:22.763Z,6.30
2023-05-21T15:51:26.009Z,6.40
2023-05-21T15:54:29.173Z,5.53
2023-05-21T15:58:05.819Z,6.03
2023-05-21T16:01:07.054Z,6.20
2023-05-21T16:04:11.741Z,23.33
2023-05-21T16:07:15.128Z,10.13
2023-05-21T16:10:18.669Z,10.83
2023-05-21T16:13:21.820Z,10.13
2023-05-21T16:16:25.160Z,8.33
2023-05-21T16:19:29.766Z,8.30
2023-05-21T16:22:32.853Z,6.10
2023-05-21T16:25:36.545Z,6.87
2023-05-21T16:28:40.164Z,6.40
2023-05-21T16:31:43.497Z,6.87
2023-05-21T16:34:48.069Z,5.83
2023-05-21T16:37:51.111Z,5.33
2023-05-21T16:40:54.306Z,5.50
2023-05-21T16:43:57.352Z,8.13
2023-05-21T16:47:01.944Z,7.00
2023-05-21T16:50:07.702Z,5.93
2023-05-21T16:53:11.458Z,7.00
2023-05-21T16:56:14.459Z,6.83
2023-05-21T16:59:17.665Z,5.97
2023-05-21T17:02:20.914Z,6.30
2023-05-21T17:05:26.477Z,6.63
2023-05-21T17:08:29.515Z,7.33
2023-05-21T17:11:32.648Z,5.97
2023-05-21T17:14:36.738Z,6.43
2023-05-21T17:17:41.385Z,7.23
2023-05-21T17:20:46.036Z,6.07
2023-05-21T17:23:49.111Z,6.33
2023-05-21T17:26:53.653Z,6.90
2023-05-21T17:29:57.206Z,5.60
2023-05-21T17:33:01.982Z,5.90
2023-05-21T17:39:27.550Z,6.27
2023-05-21T17:42:30.626Z,6.10
2023-05-21T17:45:33.953Z,6.20
2023-05-21T17:48:37.071Z,6.30
2023-05-21T17:51:41.648Z,6.00
2023-05-21T17:54:44.776Z,5.13
2023-05-21T17:57:48.036Z,6.17
2023-05-21T18:00:51.293Z,5.70
2023-05-21T18:03:54.864Z,6.23
2023-05-21T18:06:59.539Z,5.27
2023-05-21T18:10:02.660Z,6.00
2023-05-21T18:13:05.979Z,5.43
2023-05-21T18:16:10.059Z,6.20
2023-05-21T18:19:13.311Z,5.80
2023-05-21T18:22:17.774Z,5.60
2023-05-21T18:25:20.950Z,5.93
2023-05-21T18:28:24.046Z,5.40
2023-05-21T18:31:27.176Z,5.73
2023-05-21T18:34:30.282Z,5.30
2023-05-21T18:37:34.753Z,5.60
2023-05-21T18:40:38.130Z,5.53
2023-05-21T18:43:42.221Z,5.53
2023-05-21T18:46:45.558Z,5.90
2023-05-21T18:49:48.947Z,5.67
2023-05-21T18:52:55.387Z,5.67
2023-05-21T18:55:58.383Z,6.07
2023-05-21T18:59:01.322Z,5.83
2023-05-21T19:02:05.847Z,5.53
2023-05-21T19:05:09.905Z,5.53
2023-05-21T19:08:14.413Z,5.97
2023-05-21T19:11:18.741Z,5.40
2023-05-21T19:14:21.859Z,5.50
2023-05-21T19:17:25.345Z,5.37
2023-05-21T19:20:28.621Z,5.07
2023-05-21T19:23:44.600Z,5.20
2023-05-21T19:26:51.748Z,5.67
2023-05-21T19:29:58.557Z,4.80
2023-05-21T19:33:01.866Z,5.57
2023-05-21T19:36:05.182Z,5.40
2023-05-21T19:39:09.899Z,5.70
2023-05-21T19:42:12.993Z,5.20
2023-05-21T19:45:16.162Z,5.80
2023-05-21T19:48:19.401Z,5.93
2023-05-21T19:51:22.589Z,5.53
2023-05-21T19:54:27.707Z,5.60
2023-05-21T19:57:31.032Z,5.77
2023-05-21T20:00:34.095Z,5.27
2023-05-21T20:03:37.180Z,5.20
2023-05-21T20:06:40.749Z,5.50
2023-05-21T20:09:45.348Z,5.97
2023-05-21T20:12:48.354Z,5.37
2023-05-21T20:15:51.747Z,6.13
2023-05-21T20:18:56.822Z,5.60
2023-05-21T20:22:00.285Z,5.90
2023-05-21T20:25:06.007Z,5.70
2023-05-21T20:28:09.800Z,5.53
2023-05-21T20:31:13.003Z,5.67
2023-05-21T20:34:17.565Z,5.60
2023-05-21T20:37:21.663Z,5.20
2023-05-21T20:40:26.155Z,4.90
2023-05-21T20:43:29.335Z,7.03
2023-05-21T20:46:32.710Z,6.13
2023-05-21T20:49:36.457Z,5.50
2023-05-21T20:52:40.605Z,6.57
2023-05-21T20:55:46.558Z,6.17
2023-05-21T20:58:50.586Z,5.97
2023-05-21T21:01:53.679Z,6.23
2023-05-21T21:04:57.861Z,5.83
2023-05-21T21:08:02.514Z,6.10
2023-05-21T21:11:07.079Z,6.30
2023-05-21T21:14:10.161Z,6.43
2023-05-21T21:17:13.228Z,5.57
2023-05-21T21:20:17.764Z,6.37
2023-05-21T21:23:20.801Z,6.37
2023-05-21T21:26:27.103Z,6.13
2023-05-21T21:29:30.100Z,5.93
2023-05-21T21:32:33.273Z,5.70
2023-05-21T21:35:36.448Z,5.67
2023-05-21T21:38:39.612Z,5.70
2023-05-21T21:41:44.133Z,6.00
2023-05-21T21:44:50.383Z,5.97
2023-05-21T21:47:53.504Z,6.03
2023-05-21T21:50:56.959Z,6.47
2023-05-21T21:54:00.060Z,5.80
2023-05-21T21:57:04.856Z,6.27
2023-05-21T22:00:13.293Z,5.97
2023-05-21T22:03:16.587Z,5.97
2023-05-21T22:06:19.743Z,5.97
2023-05-21T22:09:23.180Z,5.97
2023-05-21T22:12:28.930Z,5.60
2023-05-21T22:15:32.758Z,5.60
2023-05-21T22:18:40.350Z,5.83
2023-05-21T22:21:44.436Z,5.47
2023-05-21T22:24:47.482Z,5.90
2023-05-21T22:27:52.305Z,5.40
2023-05-21T22:30:55.389Z,5.53
2023-05-21T22:33:58.503Z,5.40
2023-05-21T22:37:02.654Z,5.03
2023-05-21T22:40:07.570Z,4.87
2023-05-21T22:43:12.385Z,5.10
2023-05-21T22:46:15.971Z,5.33
2023-05-21T22:49:19.821Z,5.33
2023-05-21T22:52:23.026Z,5.30
2023-05-21T22:55:26.091Z,5.50
2023-05-21T22:58:30.653Z,5.00
2023-05-21T23:01:33.800Z,5.73
2023-05-21T23:04:43.821Z,5.20
2023-05-21T23:07:47.483Z,5.27
2023-05-21T23:10:50.678Z,5.30
2023-05-21T23:13:55.075Z,5.50
2023-05-21T23:17:02.163Z,4.53
2023-05-21T23:20:07.582Z,5.00
2023-05-21T23:23:10.966Z,5.33
2023-05-21T23:26:13.989Z,5.23
2023-05-21T23:29:18.993Z,4.60
2023-05-21T23:32:23.240Z,5.43
2023-05-21T23:35:26.419Z,5.30
2023-05-21T23:38:29.546Z,5.30
2023-05-21T23:41:32.656Z,5.13
2023-05-21T23:44:37.093Z,5.30
2023-05-21T23:47:40.211Z,4.87
2023-05-21T23:50:43.344Z,4.70
2023-05-21T23:53:46.474Z,5.20
2023-05-21T23:56:49.632Z,5.20
2023-05-21T23:59:54.078Z,4.87
